createdAt,value
2023-02-02T00:00:26.626Z,80.18
2023-02-02T00:03:57.685Z,80.07
2023-02-02T00:07:29.584Z,79.97
2023-02-02T00:14:43.539Z,77.89
2023-02-02T00:18:21.634Z,77.22
2023-02-02T00:21:51.664Z,77.51
2023-02-02T00:24:51.451Z,78.11
2023-02-02T00:27:19.306Z,78.10
2023-02-02T00:29:47.319Z,77.94
2023-02-02T00:32:15.114Z,78.25
2023-02-02T00:34:42.989Z,78.03
2023-02-02T00:37:10.837Z,78.54
2023-02-02T00:39:38.660Z,78.35
2023-02-02T00:42:06.538Z,78.39
2023-02-02T00:44:54.127Z,78.82
2023-02-02T00:47:22.583Z,78.64
2023-02-02T00:49:50.452Z,78.43
2023-02-02T00:52:18.221Z,78.48
2023-02-02T00:54:46.148Z,78.43
2023-02-02T00:57:14.791Z,78.47
2023-02-02T00:59:42.930Z,78.47
2023-02-02T01:02:12.526Z,78.49
2023-02-02T01:04:40.655Z,78.55
2023-02-02T01:07:09.257Z,78.69
2023-02-02T01:09:37.116Z,78.65
2023-02-02T01:12:05.348Z,78.64
2023-02-02T01:14:33.179Z,78.53
2023-02-02T01:17:01.147Z,78.38
2023-02-02T01:19:28.961Z,78.18
2023-02-02T01:21:56.860Z,77.93
2023-02-02T01:24:27.963Z,77.83
2023-02-02T01:26:56.915Z,77.94
2023-02-02T01:29:25.661Z,77.82
2023-02-02T01:31:53.941Z,77.95
2023-02-02T01:34:21.948Z,77.92
2023-02-02T01:36:49.823Z,78.10
2023-02-02T01:39:17.874Z,78.19
2023-02-02T01:41:46.156Z,78.16
2023-02-02T01:44:47.991Z,78.36
2023-02-02T01:47:16.252Z,78.46
2023-02-02T01:49:44.584Z,78.31
2023-02-02T01:52:15.190Z,78.32
2023-02-02T01:54:50.783Z,78.25
2023-02-02T01:57:33.405Z,78.24
2023-02-02T02:00:05.088Z,78.45
2023-02-02T02:02:48.311Z,78.31
2023-02-02T02:05:23.755Z,78.08
2023-02-02T02:07:56.317Z,78.37
2023-02-02T02:10:24.170Z,78.34
2023-02-02T02:12:52.012Z,78.17
2023-02-02T02:15:39.821Z,78.36
2023-02-02T02:18:30.074Z,78.36
2023-02-02T02:21:40.213Z,78.31
2023-02-02T02:24:55.370Z,78.50
2023-02-02T02:27:57.297Z,78.66
2023-02-02T02:30:51.040Z,78.93
2023-02-02T02:33:31.673Z,78.90
2023-02-02T02:36:12.763Z,79.09
2023-02-02T02:38:50.619Z,79.51
2023-02-02T02:41:23.922Z,80.08
2023-02-02T02:44:06.629Z,79.32
2023-02-02T02:46:36.237Z,79.82
2023-02-02T02:49:04.527Z,79.46
2023-02-02T02:51:46.196Z,79.44
2023-02-02T02:54:24.173Z,79.53
2023-02-02T02:57:03.437Z,79.45
2023-02-02T02:59:42.367Z,79.43
2023-02-02T03:02:31.194Z,79.55
2023-02-02T03:05:09.668Z,79.57
2023-02-02T03:07:44.626Z,79.50
2023-02-02T03:10:14.760Z,79.61
2023-02-02T03:12:46.990Z,79.60
2023-02-02T03:15:16.014Z,79.59
2023-02-02T03:17:45.864Z,79.41
2023-02-02T03:20:14.143Z,79.27
2023-02-02T03:22:42.342Z,79.38
2023-02-02T03:25:11.357Z,79.19
2023-02-02T03:27:41.143Z,79.39
2023-02-02T03:30:12.391Z,79.42
2023-02-02T03:32:41.481Z,79.68
2023-02-02T03:35:10.089Z,81.29
2023-02-02T03:37:38.406Z,83.37
2023-02-02T03:40:06.937Z,82.08
2023-02-02T03:42:34.771Z,81.61
2023-02-02T03:45:02.702Z,82.36
2023-02-02T03:47:31.289Z,83.82
2023-02-02T03:49:59.155Z,83.13
2023-02-02T03:52:27.122Z,82.66
2023-02-02T03:54:55.029Z,82.25
2023-02-02T03:57:22.907Z,82.87
2023-02-02T03:59:50.788Z,82.61
2023-02-02T04:02:18.993Z,82.65
2023-02-02T04:04:47.821Z,85.51
2023-02-02T04:07:16.159Z,85.53
2023-02-02T04:09:44.471Z,84.55
2023-02-02T04:12:12.321Z,84.74
2023-02-02T04:14:40.216Z,85.36
2023-02-02T04:17:08.103Z,85.79
2023-02-02T04:19:35.996Z,84.96
2023-02-02T04:22:03.857Z,84.64
2023-02-02T04:24:31.831Z,84.10
2023-02-02T04:26:59.733Z,84.02
2023-02-02T04:29:27.536Z,84.10
2023-02-02T04:31:56.166Z,83.84
2023-02-02T04:34:23.983Z,83.84
2023-02-02T04:36:51.754Z,83.70
2023-02-02T04:39:19.676Z,83.42
2023-02-02T04:41:47.493Z,83.38
2023-02-02T04:44:16.062Z,83.18
2023-02-02T04:46:44.492Z,83.38
2023-02-02T04:49:12.605Z,83.17
2023-02-02T04:51:41.000Z,83.02
2023-02-02T04:54:09.033Z,82.79
2023-02-02T04:56:37.053Z,82.83
2023-02-02T04:59:05.025Z,82.66
2023-02-02T05:01:32.907Z,82.60
2023-02-02T05:04:00.802Z,82.48
2023-02-02T05:06:28.745Z,82.51
2023-02-02T05:08:56.663Z,82.49
2023-02-02T05:11:24.659Z,82.53
2023-02-02T05:13:54.957Z,82.39
2023-02-02T05:16:23.888Z,82.67
2023-02-02T05:18:53.673Z,82.59
2023-02-02T05:21:22.505Z,82.52
2023-02-02T05:23:50.498Z,82.64
2023-02-02T05:26:22.710Z,82.78
2023-02-02T05:28:50.944Z,83.01
2023-02-02T05:31:21.933Z,83.04
2023-02-02T05:33:49.836Z,83.20
2023-02-02T05:36:17.790Z,83.23
2023-02-02T05:38:45.612Z,83.18
2023-02-02T05:41:13.461Z,83.25
2023-02-02T05:43:41.440Z,83.14
2023-02-02T05:46:09.533Z,83.18
2023-02-02T05:48:38.419Z,83.29
2023-02-02T05:51:12.466Z,83.34
2023-02-02T05:53:40.381Z,83.38
2023-02-02T05:56:08.198Z,83.44
2023-02-02T05:58:36.159Z,83.45
2023-02-02T06:01:04.177Z,83.41
2023-02-02T06:03:32.125Z,83.48
2023-02-02T06:06:00.319Z,83.25
2023-02-02T06:08:28.139Z,83.32
2023-02-02T06:10:56.045Z,83.29
2023-02-02T06:13:24.393Z,83.43
2023-02-02T06:15:52.541Z,83.23
2023-02-02T06:18:20.671Z,83.26
2023-02-02T06:20:48.643Z,83.23
2023-02-02T06:23:17.066Z,83.19
2023-02-02T06:25:44.983Z,83.42
2023-02-02T06:28:13.174Z,83.29
2023-02-02T06:30:43.220Z,83.44
2023-02-02T06:33:12.290Z,84.12
2023-02-02T06:35:40.221Z,86.05
2023-02-02T06:38:08.407Z,85.37
2023-02-02T06:40:36.314Z,85.54
2023-02-02T06:43:04.464Z,85.38
2023-02-02T06:45:32.813Z,86.12
2023-02-02T06:48:03.574Z,87.26
2023-02-02T06:50:31.611Z,87.90
2023-02-02T06:52:59.756Z,87.44
2023-02-02T06:55:27.913Z,88.46
2023-02-02T06:57:58.615Z,88.14
2023-02-02T07:00:30.484Z,88.23
2023-02-02T07:02:58.664Z,86.86
2023-02-02T07:05:30.403Z,86.16
2023-02-02T07:08:05.556Z,85.53
2023-02-02T07:11:13.484Z,85.62
2023-02-02T07:13:39.967Z,85.66
2023-02-02T07:16:26.732Z,85.50
2023-02-02T07:20:17.872Z,84.80
2023-02-02T07:23:19.968Z,84.25
2023-02-02T08:13:58.755Z,76.37
2023-02-02T08:20:22.912Z,75.66
2023-02-02T08:22:51.898Z,75.04
2023-02-02T08:25:24.909Z,74.98
2023-02-02T08:27:54.446Z,74.95
2023-02-02T08:30:22.399Z,75.30
2023-02-02T08:32:52.840Z,75.13
2023-02-02T08:35:23.607Z,75.35
2023-02-02T08:38:12.209Z,75.36
2023-02-02T08:40:55.273Z,75.72
2023-02-02T08:43:26.915Z,76.18
2023-02-02T08:46:34.154Z,76.94
2023-02-02T08:49:59.379Z,76.90
2023-02-02T08:52:12.345Z,77.29
2023-02-02T08:54:43.510Z,77.36
2023-02-02T09:00:57.772Z,77.51
2023-02-02T09:04:39.215Z,77.67
2023-02-02T09:07:21.171Z,77.87
2023-02-02T09:10:08.339Z,77.63
2023-02-02T09:14:24.310Z,77.56
2023-02-02T09:17:45.578Z,75.85
2023-02-02T09:21:21.194Z,74.42
2023-02-02T09:24:15.384Z,73.64
2023-02-02T09:26:54.598Z,73.82
2023-02-02T09:29:54.452Z,73.97
2023-02-02T09:32:36.675Z,74.47
2023-02-02T09:35:20.484Z,74.01
2023-02-02T09:38:09.711Z,73.97
2023-02-02T09:41:15.095Z,74.52
2023-02-02T09:44:19.195Z,74.31
2023-02-02T09:47:32.830Z,73.99
2023-02-02T09:51:01.982Z,74.41
2023-02-02T09:53:55.311Z,74.52
2023-02-02T09:56:41.697Z,74.51
2023-02-02T09:59:48.508Z,74.31
2023-02-02T10:02:42.496Z,73.99
2023-02-02T10:05:23.411Z,73.58
2023-02-02T10:08:10.921Z,74.28
2023-02-02T10:11:24.761Z,74.37
2023-02-02T10:14:25.464Z,75.32
2023-02-02T10:17:50.298Z,76.13
2023-02-02T10:20:49.369Z,76.46
2023-02-02T10:23:33.760Z,77.46
2023-02-02T10:26:38.928Z,78.02
2023-02-02T10:30:00.786Z,78.81
2023-02-02T10:33:01.610Z,78.96
2023-02-02T10:35:54.968Z,79.45
2023-02-02T10:38:48.989Z,79.66
2023-02-02T10:41:36.040Z,79.34
2023-02-02T10:44:27.353Z,79.66
2023-02-02T10:47:01.169Z,79.28
2023-02-02T10:49:41.256Z,79.07
2023-02-02T10:52:41.104Z,79.02
2023-02-02T11:03:00.698Z,78.72
2023-02-02T11:06:21.776Z,78.56
2023-02-02T11:10:32.704Z,78.18
2023-02-02T11:13:46.992Z,77.92
2023-02-02T11:24:29.946Z,72.63
2023-02-02T11:28:05.568Z,72.16
2023-02-02T11:31:46.682Z,71.81
2023-02-02T11:49:44.453Z,69.11
2023-02-02T11:52:20.825Z,67.81
2023-02-02T11:55:42.103Z,67.56
2023-02-02T11:58:30.883Z,66.68
2023-02-02T12:02:30.061Z,66.95
2023-02-02T12:05:37.648Z,64.65
2023-02-02T12:08:23.450Z,63.95
2023-02-02T12:11:03.153Z,63.57
2023-02-02T12:14:05.990Z,62.30
2023-02-02T12:16:54.455Z,63.38
2023-02-02T12:19:58.960Z,63.46
2023-02-02T12:23:05.865Z,62.92
2023-02-02T12:26:25.137Z,62.20
2023-02-02T12:29:14.648Z,60.40
2023-02-02T12:32:18.717Z,61.38
2023-02-02T12:35:47.992Z,60.85
2023-02-02T12:42:17.254Z,60.53
2023-02-02T12:45:26.560Z,60.72
2023-02-02T12:48:27.930Z,59.95
2023-02-02T12:51:28.925Z,59.79
2023-02-02T12:54:33.413Z,59.37
2023-02-02T12:57:19.142Z,58.79
2023-02-02T13:00:15.926Z,57.65
2023-02-02T13:03:06.014Z,57.48
2023-02-02T13:06:02.713Z,57.48
2023-02-02T13:09:11.516Z,55.80
2023-02-02T13:12:51.911Z,52.82
2023-02-02T13:16:01.941Z,52.57
2023-02-02T13:19:20.642Z,50.45
2023-02-02T13:22:13.699Z,50.10
2023-02-02T13:24:51.289Z,49.15
2023-02-02T13:28:00.916Z,49.55
2023-02-02T13:30:39.338Z,49.99
2023-02-02T13:33:26.933Z,47.88
2023-02-02T13:36:04.874Z,48.80
2023-02-02T13:38:35.094Z,49.51
2023-02-02T13:41:09.002Z,49.33
2023-02-02T13:44:06.191Z,49.21
2023-02-02T13:46:50.829Z,49.91
2023-02-02T13:49:26.831Z,51.48
2023-02-02T13:52:25.661Z,52.32
2023-02-02T13:55:20.245Z,53.35
2023-02-02T13:58:12.208Z,54.82
2023-02-02T14:00:49.250Z,55.58
2023-02-02T14:03:39.970Z,57.25
2023-02-02T14:06:17.180Z,57.52
2023-02-02T14:08:51.128Z,58.21
2023-02-02T14:11:24.901Z,58.63
2023-02-02T14:14:15.519Z,59.26
2023-02-02T14:16:56.184Z,60.06
2023-02-02T14:19:57.310Z,60.65
2023-02-02T14:22:48.501Z,61.19
2023-02-02T14:26:07.648Z,61.43
2023-02-02T14:29:29.992Z,62.33
2023-02-02T14:32:46.205Z,62.04
2023-02-02T14:36:23.604Z,62.03
2023-02-02T14:40:15.855Z,62.66
2023-02-02T14:44:05.632Z,62.56
2023-02-02T14:47:27.998Z,62.83
2023-02-02T14:50:35.414Z,63.01
2023-02-02T14:53:43.925Z,62.93
2023-02-02T14:56:17.462Z,63.02
2023-02-02T14:59:00.420Z,63.06
2023-02-02T15:01:33.391Z,63.24
2023-02-02T15:04:25.416Z,63.30
2023-02-02T15:06:54.596Z,63.62
2023-02-02T15:09:28.545Z,63.58
2023-02-02T15:12:18.035Z,63.93
2023-02-02T15:14:56.299Z,63.89
2023-02-02T15:18:00.972Z,63.97
2023-02-02T15:20:51.666Z,64.04
2023-02-02T15:23:42.729Z,64.24
2023-02-02T15:26:25.292Z,64.40
2023-02-02T15:29:17.513Z,64.45
2023-02-02T15:31:50.244Z,64.63
2023-02-02T15:34:31.022Z,64.56
2023-02-02T15:37:06.541Z,64.78
2023-02-02T15:40:04.214Z,64.98
2023-02-02T15:43:02.725Z,65.13
2023-02-02T15:45:54.871Z,65.32
2023-02-02T15:48:30.500Z,65.23
2023-02-02T15:51:38.624Z,65.30
2023-02-02T15:54:26.047Z,65.30
2023-02-02T15:57:36.832Z,65.45
2023-02-02T16:00:25.974Z,65.47
2023-02-02T16:03:10.197Z,65.35
2023-02-02T16:05:44.268Z,65.68
2023-02-02T16:08:19.777Z,65.71
2023-02-02T16:10:49.483Z,65.63
2023-02-02T16:13:27.860Z,65.43
2023-02-02T16:15:59.897Z,65.51
2023-02-02T16:18:28.327Z,65.38
2023-02-02T16:21:00.880Z,65.40
2023-02-02T16:23:34.509Z,65.58
2023-02-02T16:26:06.121Z,65.70
2023-02-02T16:28:35.103Z,65.82
2023-02-02T16:31:03.631Z,66.05
2023-02-02T16:33:42.252Z,66.34
2023-02-02T16:36:26.804Z,67.09
2023-02-02T16:38:58.010Z,69.28
2023-02-02T16:41:32.119Z,69.76
2023-02-02T16:44:34.811Z,70.28
2023-02-02T16:47:05.262Z,68.97
2023-02-02T16:49:34.261Z,68.70
2023-02-02T16:52:12.710Z,68.76
2023-02-02T16:54:45.377Z,68.75
2023-02-02T16:57:19.354Z,69.50
2023-02-02T16:59:51.567Z,69.02
2023-02-02T17:02:36.705Z,68.77
2023-02-02T17:05:10.737Z,68.82
2023-02-02T17:07:46.180Z,68.92
2023-02-02T17:10:35.055Z,68.71
2023-02-02T17:13:36.660Z,68.87
2023-02-02T17:16:04.823Z,68.76
2023-02-02T17:18:32.811Z,68.72
2023-02-02T17:21:07.452Z,69.22
2023-02-02T17:23:36.595Z,68.96
2023-02-02T17:26:07.899Z,68.84
2023-02-02T17:28:40.376Z,68.72
2023-02-02T17:31:12.128Z,68.41
2023-02-02T17:33:41.125Z,68.45
2023-02-02T17:36:13.848Z,68.36
2023-02-02T17:38:41.823Z,68.16
2023-02-02T17:41:14.153Z,66.56
2023-02-02T17:43:42.892Z,66.62
2023-02-02T17:46:13.387Z,66.42
2023-02-02T17:48:41.371Z,66.66
2023-02-02T17:51:15.311Z,66.96
2023-02-02T17:53:44.196Z,66.92
2023-02-02T17:56:12.137Z,67.06
2023-02-02T17:58:40.276Z,67.22
2023-02-02T18:01:11.583Z,67.31
2023-02-02T18:03:45.735Z,67.14
2023-02-02T18:06:30.037Z,66.81
2023-02-02T18:09:33.745Z,66.15
2023-02-02T18:12:01.787Z,65.97
2023-02-02T18:14:30.146Z,65.79
2023-02-02T18:16:58.037Z,65.86
2023-02-02T18:19:25.978Z,66.23
2023-02-02T18:21:54.985Z,65.95
2023-02-02T18:25:04.729Z,66.03
2023-02-02T18:27:45.245Z,66.20
2023-02-02T18:30:37.451Z,66.21
2023-02-02T18:33:20.515Z,66.32
2023-02-02T18:35:49.556Z,66.78
2023-02-02T18:38:23.551Z,66.96
2023-02-02T18:41:27.496Z,67.29
2023-02-02T18:45:23.154Z,67.11
2023-02-02T18:49:00.485Z,67.51
2023-02-02T18:52:41.486Z,67.77
2023-02-02T18:55:41.469Z,67.93
2023-02-02T18:59:14.429Z,68.19
2023-02-02T19:02:25.115Z,68.35
2023-02-02T19:06:00.083Z,68.63
2023-02-02T19:08:52.173Z,69.12
2023-02-02T19:11:47.495Z,69.33
2023-02-02T19:15:12.490Z,69.69
2023-02-02T19:18:10.757Z,70.05
2023-02-02T19:21:31.496Z,70.45
2023-02-02T19:24:50.422Z,70.75
2023-02-02T19:28:29.460Z,70.81
2023-02-02T19:32:04.472Z,72.17
2023-02-02T19:42:38.601Z,76.01
2023-02-02T19:50:03.440Z,76.97
2023-02-02T19:54:07.713Z,76.74
2023-02-02T19:58:05.961Z,77.00
2023-02-02T20:02:03.471Z,77.58
2023-02-02T20:05:24.689Z,77.97
2023-02-02T20:09:10.383Z,79.01
2023-02-02T20:12:22.476Z,79.11
2023-02-02T20:14:50.457Z,79.17
2023-02-02T20:17:32.928Z,79.33
2023-02-02T20:20:00.805Z,79.18
2023-02-02T20:22:30.216Z,79.21
2023-02-02T20:25:33.836Z,79.11
2023-02-02T20:28:08.287Z,79.03
2023-02-02T20:30:36.140Z,79.44
2023-02-02T20:33:21.259Z,79.58
2023-02-02T20:35:49.196Z,80.93
2023-02-02T20:38:25.921Z,81.82
2023-02-02T20:40:54.388Z,82.20
2023-02-02T20:43:23.154Z,82.86
2023-02-02T20:45:51.668Z,83.21
2023-02-02T20:48:19.658Z,83.60
2023-02-02T20:50:47.548Z,83.73
2023-02-02T20:53:16.432Z,84.18
2023-02-02T20:55:44.878Z,84.74
2023-02-02T20:58:12.920Z,85.55
2023-02-02T21:00:40.798Z,86.11
2023-02-02T21:03:08.677Z,86.93
2023-02-02T21:05:36.423Z,86.73
2023-02-02T21:08:04.602Z,87.91
2023-02-02T21:10:32.967Z,88.34
2023-02-02T21:13:00.826Z,88.03
2023-02-02T21:15:28.848Z,88.63
2023-02-02T21:17:56.782Z,88.77
2023-02-02T21:20:24.903Z,88.62
2023-02-02T21:22:52.907Z,88.61
2023-02-02T21:25:20.758Z,89.02
2023-02-02T21:27:57.757Z,88.96
2023-02-02T21:30:26.746Z,89.13
2023-02-02T21:32:55.017Z,89.13
2023-02-02T21:35:24.655Z,88.97
2023-02-02T21:37:56.975Z,89.54
2023-02-02T21:40:29.730Z,89.21
2023-02-02T21:42:59.651Z,89.14
2023-02-02T21:45:34.590Z,89.27
2023-02-02T21:48:07.567Z,89.71
2023-02-02T21:50:37.831Z,90.19
2023-02-02T21:53:23.530Z,90.21
2023-02-02T21:55:57.180Z,90.47
2023-02-02T21:58:32.623Z,91.35
2023-02-02T22:01:21.668Z,94.43
2023-02-02T22:03:50.327Z,93.60
2023-02-02T22:06:25.972Z,92.97
2023-02-02T22:09:01.362Z,92.41
2023-02-02T22:11:48.358Z,92.04
2023-02-02T22:14:22.047Z,91.67
2023-02-02T22:16:53.480Z,91.43
2023-02-02T22:19:39.283Z,91.43
2023-02-02T22:22:14.055Z,91.23
2023-02-02T22:24:44.168Z,91.24
2023-02-02T22:27:19.291Z,91.55
2023-02-02T22:29:47.212Z,91.78
2023-02-02T22:32:15.063Z,91.80
2023-02-02T22:34:42.829Z,91.85
2023-02-02T23:03:42.532Z,91.82
2023-02-02T23:17:59.768Z,90.64
2023-02-02T23:20:35.262Z,89.89
2023-02-02T23:31:47.183Z,89.09
2023-02-02T23:34:16.686Z,89.04
2023-02-02T23:36:45.549Z,88.17
2023-02-02T23:39:29.504Z,88.21
2023-02-02T23:41:57.666Z,87.61
2023-02-02T23:44:29.023Z,87.46
2023-02-02T23:47:01.432Z,87.05
2023-02-02T23:49:32.839Z,86.95
2023-02-02T23:52:05.073Z,86.54
2023-02-02T23:54:34.511Z,86.69
2023-02-02T23:57:10.541Z,86.51
2023-02-02T23:59:38.769Z,86.18
